Time;durP1;ratioP1;P1;durP2;ratioP2;P2;SDS_P1;SDS_P2;PMS_P1;PMS_P2;Temp;Humidity;BMP_temperature;BMP_pressure;BME280_temperature;BME280_humidity;BME280_pressure;Samples;Min_cycle;Max_cycle;Signal;HPM_P1;HPM_P2
2021/01/31 00:00:42;;;;;;;2.85;0.73;;;;;;;25.52;37.75;96525.09;4992394;28;20201;-59
2021/01/31 00:03:10;;;;;;;1.85;0.70;;;;;;;25.54;38.39;96523.00;4992821;28;20219;-60
2021/01/31 00:05:37;;;;;;;4.60;0.75;;;;;;;25.46;38.19;96527.63;4993577;28;20352;-60
2021/01/31 00:08:07;;;;;;;2.78;0.80;;;;;;;25.44;38.45;96521.66;4994282;28;20698;-60
2021/01/31 00:10:33;;;;;;;2.80;0.80;;;;;;;25.48;37.40;96528.22;4995190;28;20201;-60
2021/01/31 00:13:01;;;;;;;1.58;0.60;;;;;;;25.44;37.46;96519.00;4992346;28;20226;-60
2021/01/31 00:15:29;;;;;;;3.35;0.70;;;;;;;25.44;37.54;96519.00;4993786;28;20675;-58
2021/01/31 00:17:56;;;;;;;3.10;0.70;;;;;;;25.47;37.83;96531.91;4995381;28;20280;-59
2021/01/31 00:20:24;;;;;;;1.17;0.65;;;;;;;25.42;38.24;96530.97;4994107;28;20201;-59
2021/01/31 00:22:50;;;;;;;2.05;0.90;;;;;;;25.41;38.38;96526.66;4993453;28;20248;-59
2021/01/31 00:25:18;;;;;;;1.33;0.68;;;;;;;25.42;37.49;96534.47;4992433;28;20628;-60
2021/01/31 00:27:44;;;;;;;1.08;0.60;;;;;;;25.45;37.58;96528.66;4991756;28;20197;-59
2021/01/31 00:30:15;;;;;;;2.53;0.80;;;;;;;25.39;37.66;96526.88;4991702;28;20376;-59
2021/01/31 00:32:41;;;;;;;1.83;0.75;;;;;;;25.39;37.48;96540.25;4993959;28;20283;-60
2021/01/31 00:35:08;;;;;;;1.80;0.88;;;;;;;25.39;37.83;96542.94;4992508;28;20229;-59
2021/01/31 00:37:35;;;;;;;2.35;0.77;;;;;;;25.41;37.29;96543.53;4993233;28;20205;-58
2021/01/31 00:40:01;;;;;;;1.90;0.77;;;;;;;25.42;38.03;96539.81;4991945;28;20205;-59
2021/01/31 00:42:28;;;;;;;3.88;0.77;;;;;;;25.42;37.39;96545.16;4991220;28;20689;-61
2021/01/31 00:44:54;;;;;;;1.55;0.90;;;;;;;25.39;37.59;96548.28;4992483;28;20362;-59
2021/01/31 00:47:21;;;;;;;3.75;0.80;;;;;;;25.44;37.88;96544.94;4992927;28;20198;-58
2021/01/31 00:49:49;;;;;;;2.10;1.00;;;;;;;25.41;37.12;96551.53;4993543;28;20296;-58
2021/01/31 00:52:15;;;;;;;1.48;0.70;;;;;;;25.40;37.31;96549.13;4993095;28;20198;-57
2021/01/31 00:54:42;;;;;;;1.27;0.73;;;;;;;25.40;37.40;96555.28;4992283;28;20256;-59
2021/01/31 00:57:09;;;;;;;2.05;0.70;;;;;;;25.40;37.51;96544.59;4994739;28;20292;-59
2021/01/31 00:59:36;;;;;;;1.80;0.75;;;;;;;25.44;37.76;96552.97;4994768;28;20292;-59
2021/01/31 01:02:06;;;;;;;1.15;1.00;;;;;;;25.44;37.46;96539.59;4991300;28;20209;-59
2021/01/31 01:04:32;;;;;;;1.23;0.57;;;;;;;25.39;37.94;96548.28;4994361;28;20229;-59
2021/01/31 01:06:58;;;;;;;1.48;0.70;;;;;;;25.42;37.23;96541.69;4991259;28;20212;-60
2021/01/31 01:09:25;;;;;;;1.58;0.60;;;;;;;25.37;37.10;96545.03;4992176;28;20197;-59
2021/01/31 01:11:51;;;;;;;2.03;0.60;;;;;;;25.36;37.43;96548.72;4991227;28;20683;-59
2021/01/31 01:14:17;;;;;;;0.73;0.65;;;;;;;25.42;37.01;96553.19;4992396;28;20236;-58
2021/01/31 01:16:44;;;;;;;1.35;0.70;;;;;;;25.36;37.38;96546.06;4990470;28;20198;-59
2021/01/31 01:19:10;;;;;;;2.35;0.85;;;;;;;25.37;37.61;96552.25;4990648;28;20210;-58
2021/01/31 01:21:36;;;;;;;0.93;0.60;;;;;;;25.37;37.40;96553.06;4992068;28;20327;-60
2021/01/31 01:24:02;;;;;;;4.00;0.80;;;;;;;25.36;38.02;96559.44;4989847;28;20221;-59
2021/01/31 01:26:29;;;;;;;1.60;0.80;;;;;;;25.34;37.09;96566.88;4992168;28;20201;-59
2021/01/31 01:28:56;;;;;;;1.70;0.80;;;;;;;25.34;37.37;96561.53;4991700;28;20201;-57
2021/01/31 01:31:22;;;;;;;2.47;0.70;;;;;;;25.34;36.99;96560.72;4990218;28;20206;-60
2021/01/31 01:33:49;;;;;;;1.58;0.70;;;;;;;25.29;37.97;96564.06;4990449;28;20229;-60
2021/01/31 01:36:16;;;;;;;1.45;0.75;;;;;;;25.23;37.65;96563.06;4990842;28;20198;-58
2021/01/31 01:38:42;;;;;;;1.50;0.77;;;;;;;25.24;37.27;96562.00;4990449;28;20232;-60
2021/01/31 01:41:09;;;;;;;1.33;0.70;;;;;;;25.24;37.33;96561.22;4989854;28;20284;-63
2021/01/31 01:43:35;;;;;;;0.98;0.60;;;;;;;25.25;37.55;96560.97;4990150;28;20233;-60
2021/01/31 01:46:25;;;;;;;1.88;0.77;;;;;;;25.24;37.36;96561.22;4989970;28;20312;-60
2021/01/31 01:48:56;;;;;;;1.52;0.70;;;;;;;25.16;37.68;96570.34;4992875;28;20247;-59
2021/01/31 01:51:30;;;;;;;1.60;0.60;;;;;;;25.19;37.85;96569.09;4992135;28;20732;-60
2021/01/31 01:53:58;;;;;;;2.17;0.80;;;;;;;25.16;37.20;96566.84;4992383;28;20229;-59
2021/01/31 01:56:29;;;;;;;1.27;0.80;;;;;;;25.15;38.14;96562.53;4991242;28;20336;-60
2021/01/31 01:58:57;;;;;;;1.00;0.50;;;;;;;25.16;37.41;96572.22;4977994;28;20212;-60
2021/01/31 02:01:23;;;;;;;3.22;0.98;;;;;;;25.07;37.35;96561.81;4977034;28;20780;-60
2021/01/31 02:03:56;;;;;;;1.50;0.65;;;;;;;25.18;37.35;96568.28;4991261;28;20223;-56
2021/01/31 02:06:24;;;;;;;1.13;0.68;;;;;;;25.12;37.45;96567.31;4991944;28;20653;-59
2021/01/31 02:08:54;;;;;;;1.70;0.60;;;;;;;25.10;38.10;96566.72;4991318;28;20220;-60
2021/01/31 02:11:21;;;;;;;1.80;0.90;;;;;;;25.11;37.81;96563.00;4992385;28;20684;-61
2021/01/31 02:13:52;;;;;;;1.27;0.85;;;;;;;25.15;37.99;96567.88;4991967;28;20236;-57
2021/01/31 02:16:25;;;;;;;1.05;0.65;;;;;;;25.14;38.06;96567.06;4991542;28;20197;-57
2021/01/31 02:19:00;;;;;;;1.35;0.70;;;;;;;25.13;38.01;96570.81;4989750;28;20233;-58
2021/01/31 02:21:51;;;;;;;3.20;0.65;;;;;;;25.22;36.97;96574.81;4991937;28;20212;-59
2021/01/31 02:24:44;;;;;;;1.42;0.75;;;;;;;25.26;37.39;96577.84;4971263;28;20228;-54
2021/01/31 02:27:54;;;;;;;1.45;0.70;;;;;;;25.24;36.90;96579.94;4978183;28;20660;-60
2021/01/31 02:30:57;;;;;;;2.50;0.80;;;;;;;25.15;37.05;96584.78;4956463;28;20620;-60
2021/01/31 02:33:33;;;;;;;1.75;0.70;;;;;;;25.12;37.06;96595.91;4973988;28;20228;-55
2021/01/31 02:36:04;;;;;;;3.45;0.60;;;;;;;25.11;37.34;96594.25;4986522;28;20232;-56
2021/01/31 02:38:36;;;;;;;1.05;0.75;;;;;;;25.11;37.87;96595.09;4991186;28;20252;-60
2021/01/31 02:41:08;;;;;;;1.33;0.70;;;;;;;25.17;36.91;96592.56;4991408;28;20216;-56
2021/01/31 02:43:39;;;;;;;0.75;0.50;;;;;;;25.22;37.78;96598.06;4991177;28;20700;-56
2021/01/31 02:46:15;;;;;;;2.38;0.85;;;;;;;25.27;37.37;96600.91;4992018;28;20201;-57
2021/01/31 02:48:47;;;;;;;2.35;0.80;;;;;;;25.20;37.88;96605.50;4990964;28;20212;-59
2021/01/31 02:51:25;;;;;;;2.25;0.70;;;;;;;25.24;36.93;96604.00;4991132;28;20201;-56
2021/01/31 02:54:00;;;;;;;1.88;0.70;;;;;;;25.32;36.92;96606.41;4990503;28;20229;-58
2021/01/31 02:56:32;;;;;;;3.53;0.82;;;;;;;25.27;37.25;96614.28;4990761;28;20217;-59
2021/01/31 02:59:03;;;;;;;1.25;0.90;;;;;;;25.20;36.74;96608.16;4991041;28;20219;-59
2021/01/31 03:01:37;;;;;;;1.20;0.70;;;;;;;25.20;37.57;96608.16;4990970;28;20207;-60
2021/01/31 03:04:07;;;;;;;1.90;0.70;;;;;;;25.20;37.71;96610.84;4991629;28;20225;-58
2021/01/31 03:06:39;;;;;;;1.20;0.70;;;;;;;25.21;36.61;96613.28;4990942;28;20201;-59
2021/01/31 03:09:11;;;;;;;1.85;0.70;;;;;;;25.14;37.68;96617.06;4990894;28;20205;-58
2021/01/31 03:11:40;;;;;;;0.70;0.57;;;;;;;25.11;37.42;96619.16;4971786;28;20761;-57
2021/01/31 03:14:11;;;;;;;3.85;0.80;;;;;;;25.12;37.21;96617.28;4988208;28;20229;-59
2021/01/31 03:16:41;;;;;;;1.38;0.68;;;;;;;25.09;37.10;96623.88;4991375;28;20220;-58
2021/01/31 03:19:14;;;;;;;0.50;0.50;;;;;;;25.09;36.72;96623.88;4990946;28;20217;-58
2021/01/31 03:21:46;;;;;;;0.95;0.80;;;;;;;25.13;36.72;96626.97;4991016;28;20205;-57
2021/01/31 03:24:19;;;;;;;1.48;0.63;;;;;;;25.07;37.64;96638.53;4990837;28;20565;-59
2021/01/31 03:26:50;;;;;;;1.10;0.75;;;;;;;25.05;37.32;96628.06;4991684;28;20290;-58
2021/01/31 03:29:17;;;;;;;1.58;0.95;;;;;;;25.08;36.68;96616.94;4977347;28;20208;-57
2021/01/31 03:31:49;;;;;;;1.77;0.80;;;;;;;25.09;37.52;96623.88;4972717;28;20529;-58
2021/01/31 03:34:21;;;;;;;0.80;0.60;;;;;;;25.11;37.13;96615.66;4994573;28;20221;-59
2021/01/31 03:36:52;;;;;;;1.30;0.90;;;;;;;25.08;37.61;96610.75;4994043;28;20194;-58
2021/01/31 03:39:19;;;;;;;2.40;0.60;;;;;;;25.11;36.79;96616.50;4994739;28;20212;-59
2021/01/31 03:41:45;;;;;;;1.52;0.82;;;;;;;25.15;36.91;96608.00;4993702;28;20197;-59
2021/01/31 03:44:12;;;;;;;1.00;0.90;;;;;;;25.14;36.82;96604.50;4992881;28;20614;-58
2021/01/31 03:46:44;;;;;;;2.05;0.75;;;;;;;25.06;37.13;96618.19;4993299;28;20297;-57
2021/01/31 03:49:15;;;;;;;0.90;0.63;;;;;;;25.09;36.92;96615.88;4994541;28;20205;-57
2021/01/31 03:51:42;;;;;;;0.73;0.70;;;;;;;25.09;37.52;96617.72;4994293;28;20224;-58
2021/01/31 03:54:10;;;;;;;1.38;0.80;;;;;;;25.09;37.46;96615.88;4992296;28;20316;-57
2021/01/31 03:56:39;;;;;;;2.67;0.70;;;;;;;25.09;36.70;96623.88;4992695;28;20297;-59
2021/01/31 03:59:07;;;;;;;1.67;0.70;;;;;;;25.06;36.70;96637.72;4994600;28;20653;-58
2021/01/31 04:01:36;;;;;;;0.93;0.50;;;;;;;25.01;37.47;96636.75;4991942;28;20252;-56
2021/01/31 04:04:11;;;;;;;2.38;0.60;;;;;;;25.06;37.12;96645.75;4994355;28;20231;-58
2021/01/31 04:06:38;;;;;;;1.10;0.80;;;;;;;25.07;37.14;96652.72;4992617;28;20334;-59
2021/01/31 04:09:08;;;;;;;1.48;0.80;;;;;;;25.03;36.98;96662.22;4994516;28;20219;-57
2021/01/31 04:11:36;;;;;;;0.63;0.60;;;;;;;25.01;37.28;96668.81;4992920;28;20246;-55
2021/01/31 04:14:09;;;;;;;1.13;0.95;;;;;;;25.03;37.20;96664.06;4984764;28;20213;-58
2021/01/31 04:16:45;;;;;;;1.48;0.77;;;;;;;25.05;37.24;96660.16;4974713;28;20205;-58
2021/01/31 04:19:13;;;;;;;1.30;0.95;;;;;;;25.02;37.22;96670.47;4989926;28;20205;-59
2021/01/31 04:21:39;;;;;;;1.55;0.80;;;;;;;24.99;37.59;96666.38;4991838;28;20263;-58
2021/01/31 04:24:06;;;;;;;1.85;0.85;;;;;;;24.99;37.54;96669.03;4993575;28;20236;-55
2021/01/31 04:26:33;;;;;;;1.25;0.80;;;;;;;24.96;37.70;96661.44;4992617;28;20288;-54
2021/01/31 04:28:59;;;;;;;1.95;0.85;;;;;;;24.95;36.63;96662.50;4991838;28;20217;-59
2021/01/31 04:31:26;;;;;;;0.85;0.77;;;;;;;24.91;37.23;96658.63;4974563;28;20625;-58
2021/01/31 04:33:53;;;;;;;1.67;1.00;;;;;;;25.02;37.13;96665.13;4974349;28;20225;-59
2021/01/31 04:36:19;;;;;;;1.52;0.80;;;;;;;24.94;37.65;96663.53;4972342;28;20222;-60
2021/01/31 04:38:45;;;;;;;1.38;0.68;;;;;;;24.92;37.19;96666.44;4972543;28;20206;-58
2021/01/31 04:41:12;;;;;;;2.80;1.00;;;;;;;24.88;36.96;96659.06;4973318;28;20210;-58
2021/01/31 04:43:39;;;;;;;1.48;0.90;;;;;;;24.91;37.61;96667.47;4972842;28;20221;-59
2021/01/31 04:46:09;;;;;;;1.40;0.77;;;;;;;24.88;36.93;96653.72;4974038;28;20222;-58
2021/01/31 04:48:41;;;;;;;1.45;0.95;;;;;;;24.91;36.55;96663.97;4975253;28;20206;-60
2021/01/31 04:51:20;;;;;;;0.90;0.73;;;;;;;24.82;36.78;96663.44;4974368;28;20573;-59
2021/01/31 04:54:07;;;;;;;1.38;0.80;;;;;;;24.83;37.10;96657.06;4973647;28;20283;-58
2021/01/31 04:56:48;;;;;;;1.13;0.90;;;;;;;24.86;37.30;96650.44;4973790;28;20226;-59
2021/01/31 04:59:25;;;;;;;1.17;0.88;;;;;;;24.83;37.09;96651.72;4973175;28;20206;-60
2021/01/31 05:01:55;;;;;;;2.03;1.00;;;;;;;24.77;36.18;96655.25;4973933;28;20214;-58
2021/01/31 05:04:25;;;;;;;2.17;1.00;;;;;;;24.80;35.98;96651.31;4973225;28;20725;-59
2021/01/31 05:06:55;;;;;;;0.88;0.75;;;;;;;24.71;37.08;96654.28;4981162;28;20215;-56
2021/01/31 05:09:22;;;;;;;4.72;0.90;;;;;;;24.82;37.66;96652.75;4993620;28;20213;-60
2021/01/31 05:11:59;;;;;;;2.15;0.70;;;;;;;24.81;37.40;96652.97;4992925;28;20212;-58
2021/01/31 05:14:39;;;;;;;1.23;1.00;;;;;;;24.78;36.77;96654.25;4993344;28;20225;-58
2021/01/31 05:17:06;;;;;;;2.72;0.90;;;;;;;24.78;37.50;96653.41;4993266;28;20250;-59
2021/01/31 05:19:33;;;;;;;1.13;0.68;;;;;;;24.70;37.40;96647.31;4990341;28;20205;-59
2021/01/31 05:22:00;;;;;;;2.25;0.90;;;;;;;24.73;36.65;96646.88;4991044;28;20295;-59
2021/01/31 05:24:27;;;;;;;1.92;0.95;;;;;;;24.75;37.35;96642.13;4990734;28;20349;-59
2021/01/31 05:26:57;;;;;;;4.30;1.00;;;;;;;24.66;36.78;96643.41;4990159;28;20201;-60
2021/01/31 05:29:28;;;;;;;1.70;0.98;;;;;;;24.70;36.57;96633.94;4991738;28;20200;-60
2021/01/31 05:31:57;;;;;;;0.95;0.80;;;;;;;24.79;37.09;96644.34;4989822;28;20202;-59
2021/01/31 05:34:32;;;;;;;2.45;0.70;;;;;;;24.83;37.59;96648.22;4971423;28;20226;-59
2021/01/31 05:37:03;;;;;;;1.83;0.70;;;;;;;24.78;36.68;96653.41;4982914;28;20251;-59
2021/01/31 05:39:42;;;;;;;1.67;0.90;;;;;;;24.81;36.99;96652.97;4992662;28;20220;-60
2021/01/31 05:42:13;;;;;;;4.20;1.30;;;;;;;24.75;36.35;96652.81;4992457;28;20227;-59
2021/01/31 05:44:41;;;;;;;1.67;0.80;;;;;;;24.71;36.48;96653.47;4990786;28;20573;-59
2021/01/31 05:47:22;;;;;;;1.58;0.70;;;;;;;24.74;36.50;96659.19;4992414;28;20288;-59
2021/01/31 05:49:50;;;;;;;2.25;1.05;;;;;;;24.71;36.59;96658.78;4976131;28;20681;-57
2021/01/31 05:52:32;;;;;;;1.75;0.93;;;;;;;24.65;37.15;96665.03;4971654;28;20613;-59
2021/01/31 05:54:59;;;;;;;1.92;1.00;;;;;;;24.65;37.10;96668.53;4971068;28;20604;-57
2021/01/31 05:57:29;;;;;;;1.13;0.80;;;;;;;24.52;37.36;96671.25;4970502;28;20241;-60
2021/01/31 05:59:57;;;;;;;1.38;0.80;;;;;;;24.62;36.56;96676.16;4972530;28;20216;-59
2021/01/31 06:02:25;;;;;;;1.30;0.93;;;;;;;24.56;36.01;96672.47;4970803;28;20210;-57
2021/01/31 06:05:12;;;;;;;1.38;0.80;;;;;;;24.56;36.10;96677.81;4970731;28;20210;-59
2021/01/31 06:07:40;;;;;;;1.00;0.80;;;;;;;24.53;36.13;96670.22;4972070;28;20210;-59
2021/01/31 06:10:10;;;;;;;1.75;0.90;;;;;;;24.52;37.24;96679.28;4972230;28;20228;-60
2021/01/31 06:12:37;;;;;;;1.63;0.70;;;;;;;24.55;36.18;96686.88;4972352;28;20336;-60
2021/01/31 06:15:07;;;;;;;2.45;0.90;;;;;;;24.44;36.33;96687.53;4990934;28;20225;-59
2021/01/31 06:17:35;;;;;;;1.52;1.00;;;;;;;24.52;36.65;96687.28;4990520;28;20671;-60
2021/01/31 06:20:05;;;;;;;3.38;0.93;;;;;;;24.53;36.72;96686.22;4990746;28;20213;-59
2021/01/31 06:22:40;;;;;;;1.02;0.70;;;;;;;24.49;37.29;96688.53;4991134;28;20231;-59
2021/01/31 06:25:08;;;;;;;1.20;0.95;;;;;;;24.56;36.51;96696.53;4971678;28;20288;-60
2021/01/31 06:27:37;;;;;;;1.02;0.90;;;;;;;24.59;37.06;96703.31;4980660;28;20324;-60
2021/01/31 06:30:26;;;;;;;1.00;0.90;;;;;;;24.58;36.40;96702.50;4989555;28;20716;-59
2021/01/31 06:32:53;;;;;;;1.20;0.90;;;;;;;24.54;35.95;96709.25;4991062;28;20239;-59
2021/01/31 06:35:23;;;;;;;0.85;0.80;;;;;;;24.52;36.55;96716.69;4990427;28;20615;-59
2021/01/31 06:38:03;;;;;;;1.02;0.80;;;;;;;24.52;35.54;96714.81;4990904;28;20612;-57
2021/01/31 06:40:40;;;;;;;1.50;1.10;;;;;;;24.61;35.24;96710.03;4991452;28;20201;-59
2021/01/31 06:43:20;;;;;;;1.98;0.88;;;;;;;24.62;36.06;96711.69;4992112;28;20307;-59
2021/01/31 06:45:55;;;;;;;1.20;1.10;;;;;;;24.62;35.20;96710.88;4992575;28;20189;-60
2021/01/31 06:48:33;;;;;;;1.30;1.00;;;;;;;24.59;35.05;96714.78;4992914;28;20258;-59
2021/01/31 06:51:05;;;;;;;1.45;0.85;;;;;;;24.49;35.26;96722.44;4991622;28;20289;-58
2021/01/31 06:54:14;;;;;;;2.15;1.08;;;;;;;24.39;35.25;96721.06;4989963;28;20259;-58
2021/01/31 06:56:58;;;;;;;2.55;1.10;;;;;;;24.44;35.19;96730.28;4968687;28;20723;-59
2021/01/31 06:59:38;;;;;;;1.60;0.98;;;;;;;24.77;35.88;96731.94;4987614;28;20193;-63
2021/01/31 07:02:27;;;;;;;4.43;1.00;;;;;;;24.92;34.93;96737.78;4991649;28;20221;-56
2021/01/31 07:05:24;;;;;;;4.85;1.33;;;;;;;25.01;35.37;96733.78;4990404;28;20212;-63
2021/01/31 07:08:26;;;;;;;7.78;1.08;;;;;;;25.15;36.02;96736.34;4990837;28;20307;-64
2021/01/31 07:11:10;;;;;;;4.60;0.90;;;;;;;25.27;35.28;96743.47;4990206;28;20193;-64
2021/01/31 07:13:53;;;;;;;1.83;0.90;;;;;;;25.45;36.05;96749.91;4990905;28;20304;-65
2021/01/31 07:16:31;;;;;;;4.45;1.10;;;;;;;25.57;35.73;96763.38;4976046;28;20276;-65
2021/01/31 07:19:03;;;;;;;1.15;0.75;;;;;;;25.66;35.13;96757.50;4988891;28;20193;-65
2021/01/31 07:21:36;;;;;;;4.65;1.13;;;;;;;25.80;35.69;96758.19;4991065;28;20626;-65
2021/01/31 07:24:09;;;;;;;3.38;1.00;;;;;;;25.88;35.00;96758.91;4991243;28;20371;-66
2021/01/31 07:26:42;;;;;;;2.53;0.90;;;;;;;25.91;35.51;96774.53;4990416;28;20208;-62
2021/01/31 07:29:18;;;;;;;2.28;0.80;;;;;;;25.99;34.85;96763.56;4991313;28;20216;-64
2021/01/31 07:31:49;;;;;;;1.52;1.00;;;;;;;26.07;35.30;96768.59;4991035;28;20201;-64
2021/01/31 07:34:22;;;;;;;1.42;1.00;;;;;;;26.10;35.31;96757.44;4991632;28;20229;-64
2021/01/31 07:37:11;;;;;;;2.55;0.80;;;;;;;26.25;34.97;96761.56;4991497;28;20236;-61
2021/01/31 07:39:47;;;;;;;1.23;0.70;;;;;;;26.30;34.96;96767.91;4990734;28;20304;-63
2021/01/31 07:42:16;;;;;;;1.83;0.90;;;;;;;26.31;34.69;96771.41;4984826;28;20201;-63
2021/01/31 07:44:47;;;;;;;4.20;0.73;;;;;;;26.31;35.66;96763.34;4990222;28;20197;-63
2021/01/31 07:47:23;;;;;;;2.70;0.82;;;;;;;26.35;35.25;96764.56;4990868;28;20613;-61
2021/01/31 07:50:13;;;;;;;9.63;1.38;;;;;;;26.36;35.41;96763.50;4988639;28;20207;-61
2021/01/31 07:53:02;;;;;;;5.35;1.08;;;;;;;26.24;35.35;96768.00;4977997;28;20226;-63
2021/01/31 07:55:38;;;;;;;4.43;0.80;;;;;;;26.05;36.31;96776.06;4987452;28;20256;-62
2021/01/31 07:58:32;;;;;;;5.47;0.90;;;;;;;26.08;36.33;96772.94;4989873;28;20296;-62
2021/01/31 08:01:00;;;;;;;3.67;0.95;;;;;;;26.15;36.37;96765.63;4989501;28;20197;-64
2021/01/31 08:03:35;;;;;;;10.23;0.95;;;;;;;26.00;36.46;96767.88;4989376;28;20229;-62
2021/01/31 08:06:07;;;;;;;3.63;0.82;;;;;;;25.93;36.37;96773.28;4990587;28;20232;-66
2021/01/31 08:08:49;;;;;;;8.10;0.85;;;;;;;25.82;36.30;96769.47;4990430;28;20201;-66
2021/01/31 08:11:53;;;;;;;2.85;0.82;;;;;;;25.80;36.40;96776.09;4974028;28;20561;-65
2021/01/31 08:14:56;;;;;;;4.57;0.65;;;;;;;25.70;36.18;96773.94;4983418;28;20734;-65
2021/01/31 08:18:02;;;;;;;2.10;0.88;;;;;;;25.66;37.16;96780.75;4974731;28;20584;-68
2021/01/31 08:20:54;;;;;;;4.35;0.80;;;;;;;25.73;36.90;96784.22;4988487;28;20457;-68
2021/01/31 08:23:46;;;;;;;5.47;0.82;;;;;;;25.58;37.58;96786.41;4984572;28;20776;-65
2021/01/31 08:26:53;;;;;;;1.40;0.77;;;;;;;25.42;36.80;96783.25;4987245;28;20251;-67
2021/01/31 08:29:32;;;;;;;3.28;0.80;;;;;;;25.39;37.55;96785.56;4979314;28;20665;-64
2021/01/31 08:32:09;;;;;;;1.90;0.68;;;;;;;25.34;38.11;96788.06;4993392;28;20327;-65
2021/01/31 08:35:10;;;;;;;1.63;0.80;;;;;;;25.29;37.96;96783.38;4993400;28;20268;-66
2021/01/31 08:37:39;;;;;;;2.03;1.00;;;;;;;25.22;37.79;96787.94;4991417;28;20216;-65
2021/01/31 08:40:31;;;;;;;2.00;0.95;;;;;;;25.12;37.83;96783.88;4993077;28;20204;-66
2021/01/31 08:42:58;;;;;;;1.90;0.90;;;;;;;25.19;37.17;96786.50;4971345;28;20236;-64
2021/01/31 08:45:44;;;;;;;2.45;0.82;;;;;;;25.11;37.34;96792.97;4993810;28;20632;-66
2021/01/31 08:48:24;;;;;;;2.55;0.70;;;;;;;25.03;37.56;96789.72;4992122;28;20213;-66
2021/01/31 08:51:06;;;;;;;4.15;0.80;;;;;;;24.93;38.09;96795.53;4994068;28;20309;-68
2021/01/31 08:53:34;;;;;;;2.47;0.88;;;;;;;24.72;38.00;96794.06;4993267;28;20610;-67
2021/01/31 08:56:21;;;;;;;2.90;0.68;;;;;;;24.79;38.49;96789.47;4993114;28;20753;-63
2021/01/31 08:58:49;;;;;;;6.00;1.48;;;;;;;24.84;39.12;96791.50;4984979;28;20209;-65
2021/01/31 09:01:16;;;;;;;5.18;1.00;;;;;;;24.85;38.29;96793.97;4993758;28;20634;-62
2021/01/31 09:03:44;;;;;;;4.22;1.02;;;;;;;24.94;38.46;96799.88;4993751;28;20613;-62
2021/01/31 09:06:11;;;;;;;3.45;1.30;;;;;;;25.08;38.36;96804.09;4993894;28;20205;-65
2021/01/31 09:08:41;;;;;;;6.85;0.90;;;;;;;25.17;37.92;96796.63;4993940;28;20205;-62
2021/01/31 09:11:12;;;;;;;6.63;1.27;;;;;;;25.37;37.96;96793.81;4993329;28;20669;-67
2021/01/31 09:13:38;;;;;;;4.30;1.05;;;;;;;25.49;37.89;96802.72;4993184;28;20240;-64
2021/01/31 09:16:11;;;;;;;9.63;1.05;;;;;;;25.51;37.42;96813.22;4991717;28;20356;-65
2021/01/31 09:18:37;;;;;;;5.25;0.75;;;;;;;25.48;36.77;96811.00;4990186;28;20236;-64
2021/01/31 09:21:20;;;;;;;11.35;1.13;;;;;;;25.54;37.59;96806.63;4991936;28;20359;-65
2021/01/31 09:23:48;;;;;;;9.05;1.10;;;;;;;25.45;37.11;96808.75;4991557;28;20463;-66
2021/01/31 09:26:14;;;;;;;5.93;1.02;;;;;;;25.51;37.87;96810.53;4986236;28;20672;-67
2021/01/31 09:28:42;;;;;;;8.30;0.85;;;;;;;25.52;37.01;96817.53;4982972;28;20210;-66
2021/01/31 09:31:10;;;;;;;6.05;0.98;;;;;;;25.47;38.15;96812.03;4986941;28;20205;-67
2021/01/31 09:33:40;;;;;;;4.55;0.80;;;;;;;25.50;37.49;96811.59;4992988;28;20240;-66
2021/01/31 09:36:19;;;;;;;5.97;1.00;;;;;;;25.60;37.33;96808.44;4992486;28;20292;-66
2021/01/31 09:38:48;;;;;;;7.40;1.10;;;;;;;25.64;37.47;96814.97;4993098;28;20220;-64
2021/01/31 09:41:18;;;;;;;15.52;1.50;;;;;;;25.69;37.61;96823.16;4993219;28;20217;-66
2021/01/31 09:43:47;;;;;;;9.55;1.30;;;;;;;25.71;39.15;96821.06;4991537;28;20547;-69
2021/01/31 09:46:16;;;;;;;14.57;1.15;;;;;;;25.76;38.71;96825.75;4992115;28;20205;-70
2021/01/31 09:48:44;;;;;;;14.48;2.85;;;;;;;25.87;38.12;96830.38;4986487;28;20674;-70
2021/01/31 09:51:25;;;;;;;13.93;1.75;;;;;;;25.76;38.58;96826.56;4978389;28;20296;-70
2021/01/31 09:53:53;;;;;;;7.05;1.30;;;;;;;25.84;38.28;96817.44;4992089;28;20217;-69
2021/01/31 09:56:39;;;;;;;9.50;1.30;;;;;;;26.01;37.79;96825.72;4977573;28;20224;-70
2021/01/31 09:59:19;;;;;;;5.43;1.10;;;;;;;26.23;37.20;96834.16;4988386;28;20205;-69
2021/01/31 10:01:46;;;;;;;6.72;1.50;;;;;;;26.31;36.15;96841.88;4992103;28;20209;-68
2021/01/31 10:04:20;;;;;;;10.30;1.38;;;;;;;26.26;36.09;96836.34;4992089;28;20697;-69
2021/01/31 10:06:50;;;;;;;5.53;1.20;;;;;;;26.21;36.47;96831.69;4992371;28;20225;-69
2021/01/31 10:09:31;;;;;;;4.78;1.40;;;;;;;26.22;36.60;96827.97;4991975;28;20224;-69
2021/01/31 10:12:16;;;;;;;7.30;1.35;;;;;;;26.30;36.08;96826.03;4991564;28;20659;-69
2021/01/31 10:14:45;;;;;;;5.78;1.17;;;;;;;26.26;35.83;96814.13;4991934;28;20213;-67
2021/01/31 10:17:18;;;;;;;2.88;1.15;;;;;;;26.19;35.94;96809.66;4992214;28;20300;-70
2021/01/31 10:19:45;;;;;;;7.68;1.30;;;;;;;26.14;35.75;96801.47;4992340;28;20206;-68
2021/01/31 10:22:19;;;;;;;7.40;1.08;;;;;;;26.14;35.88;96809.50;4991608;28;20227;-69
2021/01/31 10:24:48;;;;;;;4.63;1.10;;;;;;;26.03;36.34;96810.28;4992498;28;20200;-68
2021/01/31 10:27:28;;;;;;;8.65;1.15;;;;;;;25.95;35.73;96797.16;4992813;28;20598;-68
2021/01/31 10:30:16;;;;;;;7.03;0.98;;;;;;;25.94;35.54;96798.19;4999567;28;20193;-68
2021/01/31 10:32:43;;;;;;;3.35;1.05;;;;;;;25.77;36.39;96798.78;4991376;28;20676;-69
2021/01/31 10:35:30;;;;;;;5.03;1.27;;;;;;;25.67;36.24;96793.91;4991439;28;20680;-70
2021/01/31 10:37:59;;;;;;;8.05;1.58;;;;;;;25.59;36.85;96790.72;4991129;28;20209;-71
2021/01/31 10:40:27;;;;;;;3.13;1.17;;;;;;;25.56;36.69;96800.00;4991069;28;20209;-70
2021/01/31 10:42:54;;;;;;;7.00;1.23;;;;;;;25.47;36.97;96798.66;4991196;28;20727;-71
2021/01/31 10:45:23;;;;;;;7.95;1.13;;;;;;;25.37;37.08;96799.16;4990665;28;20200;-70
2021/01/31 10:47:50;;;;;;;10.23;1.35;;;;;;;25.32;37.28;96799.00;4991073;28;20207;-71
2021/01/31 10:50:18;;;;;;;4.35;1.50;;;;;;;25.20;37.63;96800.72;4991415;28;20576;-71
2021/01/31 10:52:45;;;;;;;6.10;1.17;;;;;;;25.18;37.30;96800.09;4990714;28;20221;-70
2021/01/31 10:55:13;;;;;;;6.43;1.30;;;;;;;25.04;37.85;96802.88;4989711;28;20231;-71
2021/01/31 10:57:40;;;;;;;7.28;1.40;;;;;;;25.07;37.88;96809.66;4989890;28;20232;-70
2021/01/31 11:00:10;;;;;;;5.05;1.40;;;;;;;25.00;37.50;96806.22;4989612;28;20677;-71
2021/01/31 11:02:37;;;;;;;10.55;1.58;;;;;;;24.97;37.44;96799.44;4990781;28;20249;-70
2021/01/31 11:05:05;;;;;;;13.57;1.10;;;;;;;24.93;37.60;96792.88;4990665;28;20201;-69
2021/01/31 11:07:31;;;;;;;5.95;1.20;;;;;;;24.81;37.35;96787.41;4989563;28;20244;-69
2021/01/31 11:09:58;;;;;;;8.93;1.40;;;;;;;24.86;38.14;96786.75;4990365;28;20205;-69
2021/01/31 11:12:24;;;;;;;9.93;1.40;;;;;;;24.92;37.93;96791.25;4989405;28;20295;-73
2021/01/31 11:14:51;;;;;;;7.43;1.70;;;;;;;24.92;37.10;96785.91;4988335;28;20689;-73
2021/01/31 11:17:17;;;;;;;4.32;1.10;;;;;;;24.81;36.34;96778.56;4988882;28;20205;-70
2021/01/31 11:19:43;;;;;;;4.97;1.30;;;;;;;24.73;36.94;96775.13;4988458;28;20201;-70
2021/01/31 11:22:10;;;;;;;5.80;1.42;;;;;;;24.78;37.30;96776.34;4987426;28;20224;-71
2021/01/31 11:24:36;;;;;;;5.20;1.55;;;;;;;24.77;37.00;96774.72;4987652;28;20308;-71
2021/01/31 11:27:02;;;;;;;7.25;1.58;;;;;;;24.80;38.01;96782.28;4989034;28;20205;-70
2021/01/31 11:29:28;;;;;;;7.18;1.70;;;;;;;24.93;37.68;96779.50;4986348;28;20213;-71
2021/01/31 11:31:56;;;;;;;3.85;1.17;;;;;;;25.00;36.77;96776.81;4989784;28;20205;-69
2021/01/31 11:34:22;;;;;;;5.75;1.40;;;;;;;24.99;37.63;96775.97;4987722;28;20344;-71
2021/01/31 11:36:48;;;;;;;7.25;1.17;;;;;;;24.99;36.77;96778.66;4989885;28;20644;-67
2021/01/31 11:39:15;;;;;;;7.38;1.40;;;;;;;25.02;36.92;96780.88;4989968;28;20621;-69
2021/01/31 11:41:41;;;;;;;10.20;1.65;;;;;;;25.19;36.25;96780.34;4989253;28;20209;-70
2021/01/31 11:44:09;;;;;;;5.03;1.50;;;;;;;25.34;35.85;96780.84;4990172;28;20565;-70
2021/01/31 11:46:36;;;;;;;8.68;1.85;;;;;;;25.49;36.41;96781.31;4990891;28;20243;-69
2021/01/31 11:49:03;;;;;;;7.90;1.58;;;;;;;25.52;35.32;96772.06;4988686;28;20859;-69
2021/01/31 11:51:30;;;;;;;6.50;1.13;;;;;;;25.74;35.21;96783.16;4990625;28;20229;-71
2021/01/31 11:53:57;;;;;;;5.18;1.38;;;;;;;25.72;35.19;96782.56;4992444;28;20701;-70
2021/01/31 11:56:23;;;;;;;12.57;1.73;;;;;;;25.78;35.05;96784.34;4993023;28;20770;-70
2021/01/31 11:58:49;;;;;;;6.35;1.33;;;;;;;25.94;34.79;96774.91;4991926;28;20333;-70